createdAt,value
2022-10-05T00:00:20.137Z,12.38
2022-10-05T00:01:20.201Z,12.4
2022-10-05T00:02:20.123Z,12.42
2022-10-05T00:03:20.129Z,12.45
2022-10-05T00:04:20.140Z,12.45
2022-10-05T00:05:20.268Z,12.46
2022-10-05T00:06:20.133Z,12.48
2022-10-05T00:07:20.121Z,12.5
2022-10-05T00:08:20.151Z,12.5
2022-10-05T00:09:20.130Z,12.5
2022-10-05T00:10:20.154Z,12.48
2022-10-05T00:11:20.127Z,12.48
2022-10-05T00:12:20.129Z,12.47
2022-10-05T00:13:20.131Z,12.45
2022-10-05T00:14:20.121Z,12.44
2022-10-05T00:15:20.157Z,12.43
2022-10-05T00:16:20.259Z,12.42
2022-10-05T00:17:20.112Z,12.4
2022-10-05T00:18:20.130Z,12.38
2022-10-05T00:19:20.114Z,12.37
2022-10-05T00:20:20.137Z,12.35
2022-10-05T00:21:20.129Z,12.33
2022-10-05T00:22:20.133Z,12.33
2022-10-05T00:23:20.223Z,12.32
2022-10-05T00:24:20.109Z,12.31
2022-10-05T00:25:20.191Z,12.31
2022-10-05T00:26:20.230Z,12.29
2022-10-05T00:27:20.522Z,12.28
2022-10-05T00:28:20.792Z,12.27
2022-10-05T00:29:20.382Z,12.26
2022-10-05T00:30:20.390Z,12.25
2022-10-05T00:31:20.905Z,12.25
2022-10-05T00:32:20.988Z,12.25
2022-10-05T00:33:20.541Z,12.25
2022-10-05T00:34:20.858Z,12.25
2022-10-05T00:35:20.146Z,12.25
2022-10-05T00:36:20.135Z,12.25
2022-10-05T00:37:20.287Z,12.26
2022-10-05T00:38:20.128Z,12.27
2022-10-05T00:39:20.135Z,12.27
2022-10-05T00:40:20.134Z,12.27
2022-10-05T00:41:20.115Z,12.27
2022-10-05T00:42:20.127Z,12.27
2022-10-05T00:43:20.112Z,12.28
2022-10-05T00:44:20.134Z,12.29
2022-10-05T00:45:20.159Z,12.31
2022-10-05T00:46:20.196Z,12.33
2022-10-05T00:47:20.142Z,12.35
2022-10-05T00:48:20.109Z,12.38
2022-10-05T00:49:20.110Z,12.38
2022-10-05T00:50:20.125Z,12.4
2022-10-05T00:51:20.123Z,12.41
2022-10-05T00:52:20.113Z,12.42
2022-10-05T00:53:20.100Z,12.43
2022-10-05T00:54:20.120Z,12.43
2022-10-05T00:55:20.132Z,12.45
2022-10-05T00:56:20.131Z,12.46
2022-10-05T00:57:20.126Z,12.48
2022-10-05T00:58:20.258Z,12.49
2022-10-05T00:59:20.260Z,12.5
2022-10-05T01:00:20.142Z,12.51
2022-10-05T01:01:20.139Z,12.51
2022-10-05T01:02:20.171Z,12.51
2022-10-05T01:03:20.119Z,12.52
2022-10-05T01:04:20.126Z,12.53
2022-10-05T01:05:20.124Z,12.55
2022-10-05T01:06:20.141Z,12.56
2022-10-05T01:07:20.126Z,12.59
2022-10-05T01:08:20.126Z,12.6
2022-10-05T01:09:20.120Z,12.61
2022-10-05T01:10:20.132Z,12.62
2022-10-05T01:11:20.157Z,12.62
2022-10-05T01:12:20.131Z,12.62
2022-10-05T01:13:20.106Z,12.62
2022-10-05T01:14:20.120Z,12.62
2022-10-05T01:15:20.124Z,12.62
2022-10-05T01:16:20.178Z,12.64
2022-10-05T01:17:20.119Z,12.64
2022-10-05T01:18:20.120Z,12.65
2022-10-05T01:19:20.126Z,12.65
2022-10-05T01:20:20.125Z,12.66
2022-10-05T01:21:20.293Z,12.67
2022-10-05T01:22:20.123Z,12.67
2022-10-05T01:23:20.124Z,12.7
2022-10-05T01:24:20.132Z,12.73
2022-10-05T01:25:20.109Z,12.73
2022-10-05T01:26:20.162Z,12.73
2022-10-05T01:27:20.134Z,12.72
2022-10-05T01:28:20.206Z,12.71
2022-10-05T01:29:20.125Z,12.7
2022-10-05T01:30:20.226Z,12.7
2022-10-05T01:31:20.556Z,12.71
2022-10-05T01:32:20.390Z,12.73
2022-10-05T01:33:20.254Z,12.73
2022-10-05T01:34:20.201Z,12.74
2022-10-05T01:35:20.419Z,12.73
2022-10-05T01:36:20.139Z,12.71
2022-10-05T01:37:20.117Z,12.69
2022-10-05T01:38:20.119Z,12.68
2022-10-05T01:39:20.121Z,12.67
2022-10-05T01:40:20.127Z,12.66
2022-10-05T01:41:20.124Z,12.65
2022-10-05T01:42:20.115Z,12.64
2022-10-05T01:43:20.118Z,12.63
2022-10-05T01:44:20.109Z,12.62
2022-10-05T01:45:20.122Z,12.61
2022-10-05T01:46:20.119Z,12.6
2022-10-05T01:47:20.140Z,12.61
2022-10-05T01:48:20.266Z,12.61
2022-10-05T01:49:20.125Z,12.59
2022-10-05T01:50:20.201Z,12.58
2022-10-05T01:51:20.322Z,12.57
2022-10-05T01:52:20.751Z,12.56
2022-10-05T01:53:20.672Z,12.56
2022-10-05T01:54:20.161Z,12.56
2022-10-05T01:55:20.204Z,12.54
2022-10-05T01:56:20.628Z,12.54
2022-10-05T01:57:20.929Z,12.55
2022-10-05T01:58:20.176Z,12.54
2022-10-05T01:59:20.415Z,12.55
2022-10-05T02:00:20.172Z,12.54
2022-10-05T02:01:20.437Z,12.55
2022-10-05T02:02:20.123Z,12.56
2022-10-05T02:03:20.170Z,12.55
2022-10-05T02:04:43.564Z,12.56
2022-10-05T02:05:20.138Z,12.56
2022-10-05T02:06:20.461Z,12.56
2022-10-05T02:07:20.519Z,12.56
2022-10-05T02:08:20.338Z,12.54
2022-10-05T02:09:20.483Z,12.54
2022-10-05T02:10:20.343Z,12.53
2022-10-05T02:11:20.624Z,12.53
2022-10-05T02:12:20.315Z,12.51
2022-10-05T02:13:20.569Z,12.5
2022-10-05T02:14:20.195Z,12.48
2022-10-05T02:15:20.471Z,12.47
2022-10-05T02:16:20.275Z,12.46
2022-10-05T02:17:20.485Z,12.45
2022-10-05T02:18:21.566Z,12.44
2022-10-05T02:19:20.259Z,12.41
2022-10-05T02:20:20.362Z,12.41
2022-10-05T02:21:20.299Z,12.41
2022-10-05T02:22:20.401Z,12.41
2022-10-05T02:23:20.242Z,12.4
2022-10-05T02:24:20.412Z,12.39
2022-10-05T02:25:20.131Z,12.38
2022-10-05T02:26:20.123Z,12.37
2022-10-05T02:27:20.111Z,12.36
2022-10-05T02:28:20.435Z,12.34
2022-10-05T02:29:20.103Z,12.34
2022-10-05T02:30:20.131Z,12.36
2022-10-05T02:31:20.213Z,12.38
2022-10-05T02:32:20.119Z,12.4
2022-10-05T02:33:20.159Z,12.4
2022-10-05T02:34:20.131Z,12.41
2022-10-05T02:35:20.351Z,12.42
2022-10-05T02:36:20.130Z,12.42
2022-10-05T02:37:20.130Z,12.41
2022-10-05T02:38:20.146Z,12.41
2022-10-05T02:39:20.133Z,12.41
2022-10-05T02:40:20.118Z,12.41
2022-10-05T02:41:20.115Z,12.41
2022-10-05T02:42:20.132Z,12.42
2022-10-05T02:43:20.132Z,12.42
2022-10-05T02:44:20.139Z,12.43
2022-10-05T02:45:20.132Z,12.44
2022-10-05T02:46:20.166Z,12.46
2022-10-05T02:47:20.116Z,12.45
2022-10-05T02:48:20.132Z,12.46
2022-10-05T02:49:20.156Z,12.46
2022-10-05T02:50:20.144Z,12.47
2022-10-05T02:51:20.208Z,12.46
2022-10-05T02:52:20.134Z,12.45
2022-10-05T02:53:20.142Z,12.44
2022-10-05T02:54:20.126Z,12.42
2022-10-05T02:55:20.124Z,12.42
2022-10-05T02:56:20.134Z,12.42
2022-10-05T02:57:20.108Z,12.43
2022-10-05T02:58:20.135Z,12.42
2022-10-05T02:59:20.126Z,12.42
2022-10-05T03:00:20.131Z,12.42
2022-10-05T03:01:20.215Z,12.42
2022-10-05T03:02:20.197Z,12.41
2022-10-05T03:03:20.117Z,12.42
2022-10-05T03:04:20.130Z,12.42
2022-10-05T03:05:20.126Z,12.43
2022-10-05T03:06:20.134Z,12.42
2022-10-05T03:07:20.128Z,12.43
2022-10-05T03:08:20.132Z,12.43
2022-10-05T03:09:20.130Z,12.43
2022-10-05T03:10:20.139Z,12.43
2022-10-05T03:11:20.141Z,12.45
2022-10-05T03:12:20.283Z,12.46
2022-10-05T03:13:20.116Z,12.47
2022-10-05T03:14:20.118Z,12.46
2022-10-05T03:15:20.117Z,12.48
2022-10-05T03:16:20.172Z,12.49
2022-10-05T03:17:20.128Z,12.49
2022-10-05T03:18:20.111Z,12.51
2022-10-05T03:19:20.130Z,12.52
2022-10-05T03:20:20.128Z,12.54
2022-10-05T03:21:20.135Z,12.54
2022-10-05T03:22:20.133Z,12.55
2022-10-05T03:23:20.122Z,12.56
2022-10-05T03:24:20.130Z,12.55
2022-10-05T03:25:20.160Z,12.56
2022-10-05T03:26:20.120Z,12.56
2022-10-05T03:27:20.123Z,12.58
2022-10-05T03:28:20.153Z,12.59
2022-10-05T03:29:20.117Z,12.61
2022-10-05T03:30:20.113Z,12.63
2022-10-05T03:31:20.180Z,12.64
2022-10-05T03:32:20.130Z,12.68
2022-10-05T03:33:20.111Z,12.7
2022-10-05T03:34:20.119Z,12.71
2022-10-05T03:35:20.126Z,12.73
2022-10-05T03:36:20.125Z,12.74
2022-10-05T03:37:20.121Z,12.75
2022-10-05T03:38:20.192Z,12.73
2022-10-05T03:39:20.103Z,12.71
2022-10-05T03:40:20.222Z,12.69
2022-10-05T03:41:20.315Z,12.68
2022-10-05T03:42:20.254Z,12.67
2022-10-05T03:43:21.513Z,12.67
2022-10-05T03:44:20.636Z,12.67
2022-10-05T03:45:20.750Z,12.68
2022-10-05T03:46:20.964Z,12.68
2022-10-05T03:47:21.285Z,12.69
2022-10-05T03:48:20.121Z,12.7
2022-10-05T03:49:20.139Z,12.7
2022-10-05T03:50:20.156Z,12.68
2022-10-05T03:51:20.413Z,12.68
2022-10-05T03:52:20.145Z,12.67
2022-10-05T03:53:20.106Z,12.69
2022-10-05T03:54:20.133Z,12.69
2022-10-05T03:55:20.131Z,12.69
2022-10-05T03:56:20.126Z,12.68
2022-10-05T03:57:20.113Z,12.68
2022-10-05T03:58:20.102Z,12.67
2022-10-05T03:59:20.108Z,12.66
2022-10-05T04:00:20.128Z,12.66
2022-10-05T04:01:20.172Z,12.67
2022-10-05T04:02:20.152Z,12.66
2022-10-05T04:03:20.115Z,12.65
2022-10-05T04:04:20.121Z,12.64
2022-10-05T04:05:20.135Z,12.63
2022-10-05T04:06:20.118Z,12.62
2022-10-05T04:07:20.117Z,12.61
2022-10-05T04:08:20.118Z,12.6
2022-10-05T04:09:20.123Z,12.58
2022-10-05T04:10:20.105Z,12.57
2022-10-05T04:11:20.125Z,12.57
2022-10-05T04:12:20.113Z,12.57
2022-10-05T04:13:20.130Z,12.57
2022-10-05T04:14:20.147Z,12.56
2022-10-05T04:15:20.369Z,12.54
2022-10-05T04:16:20.211Z,12.53
2022-10-05T04:17:20.396Z,12.51
2022-10-05T04:18:20.310Z,12.48
2022-10-05T04:19:20.317Z,12.46
2022-10-05T04:20:20.250Z,12.45
2022-10-05T04:21:23.632Z,12.45
2022-10-05T04:22:20.873Z,12.43
2022-10-05T04:23:20.563Z,12.43
2022-10-05T04:24:20.369Z,12.43
2022-10-05T04:25:20.431Z,12.42
2022-10-05T04:26:20.152Z,12.43
2022-10-05T04:27:20.362Z,12.43
2022-10-05T04:28:20.705Z,12.44
2022-10-05T04:29:20.237Z,12.44
2022-10-05T04:30:20.274Z,12.45
2022-10-05T04:31:20.557Z,12.45
2022-10-05T04:32:20.369Z,12.44
2022-10-05T04:33:20.604Z,12.44
2022-10-05T04:34:20.122Z,12.45
2022-10-05T04:35:20.129Z,12.43
2022-10-05T04:36:20.140Z,12.43
2022-10-05T04:37:20.123Z,12.43
2022-10-05T04:38:20.244Z,12.41
2022-10-05T04:39:20.184Z,12.43
2022-10-05T04:40:20.101Z,12.44
2022-10-05T04:41:20.119Z,12.44
2022-10-05T04:42:20.104Z,12.43
2022-10-05T04:43:20.229Z,12.41
2022-10-05T04:44:20.135Z,12.4
2022-10-05T04:45:20.245Z,12.37
2022-10-05T04:46:20.508Z,12.35
2022-10-05T04:47:20.256Z,12.33
2022-10-05T04:48:20.124Z,12.32
2022-10-05T04:49:20.219Z,12.29
2022-10-05T04:50:20.583Z,12.29
2022-10-05T04:51:20.127Z,12.27
2022-10-05T04:52:20.134Z,12.27
2022-10-05T04:53:20.259Z,12.27
2022-10-05T04:54:20.136Z,12.27
2022-10-05T04:55:20.115Z,12.26
2022-10-05T04:56:20.124Z,12.27
2022-10-05T04:57:20.124Z,12.29
2022-10-05T04:58:20.282Z,12.3
2022-10-05T04:59:20.136Z,12.31
2022-10-05T05:00:20.127Z,12.31
2022-10-05T05:01:20.150Z,12.31
2022-10-05T05:02:20.118Z,12.3
2022-10-05T05:03:20.290Z,12.29
2022-10-05T05:04:20.127Z,12.29
2022-10-05T05:05:20.131Z,12.3
2022-10-05T05:06:20.135Z,12.31
2022-10-05T05:07:20.118Z,12.33
2022-10-05T05:08:20.270Z,12.35
2022-10-05T05:09:20.130Z,12.34
2022-10-05T05:10:20.115Z,12.35
2022-10-05T05:11:24.634Z,12.36
2022-10-05T05:12:20.119Z,12.36
2022-10-05T05:13:20.255Z,12.36
2022-10-05T05:14:20.120Z,12.38
2022-10-05T05:15:20.113Z,12.38
2022-10-05T05:16:20.154Z,12.37
2022-10-05T05:17:20.143Z,12.36
2022-10-05T05:18:20.264Z,12.36
2022-10-05T05:19:20.128Z,12.37
2022-10-05T05:20:20.129Z,12.37
2022-10-05T05:21:20.133Z,12.37
2022-10-05T05:22:20.104Z,12.38
2022-10-05T05:23:20.126Z,12.36
2022-10-05T05:24:20.120Z,12.35
2022-10-05T05:25:20.117Z,12.32
2022-10-05T05:26:20.341Z,12.32
2022-10-05T05:27:20.720Z,12.31
2022-10-05T05:28:20.720Z,12.29
2022-10-05T05:29:20.154Z,12.29
2022-10-05T05:30:20.388Z,12.27
2022-10-05T05:31:20.720Z,12.27
2022-10-05T05:32:21.086Z,12.26
2022-10-05T05:33:20.187Z,12.25
2022-10-05T05:34:20.366Z,12.23
2022-10-05T05:35:20.509Z,12.21
2022-10-05T05:36:23.324Z,12.19
2022-10-05T05:37:20.358Z,12.18
2022-10-05T05:38:20.580Z,12.17
2022-10-05T05:39:20.118Z,12.15
2022-10-05T05:40:20.156Z,12.13
2022-10-05T05:41:20.106Z,12.14
2022-10-05T05:42:20.135Z,12.15
2022-10-05T05:43:20.113Z,12.14
2022-10-05T05:44:20.193Z,12.15
2022-10-05T05:45:20.208Z,12.15
2022-10-05T05:46:20.192Z,12.15
2022-10-05T05:47:20.176Z,12.15
2022-10-05T05:48:20.109Z,12.15
2022-10-05T05:49:20.159Z,12.15
2022-10-05T05:50:20.372Z,12.15
2022-10-05T05:51:20.129Z,12.13
2022-10-05T05:52:20.126Z,12.13
2022-10-05T05:53:20.128Z,12.16
2022-10-05T05:54:20.169Z,12.18
2022-10-05T05:55:20.133Z,12.19
2022-10-05T05:56:20.139Z,12.2
2022-10-05T05:57:20.234Z,12.21
2022-10-05T05:58:20.130Z,12.2
2022-10-05T05:59:20.147Z,12.2
2022-10-05T06:00:20.124Z,12.21
2022-10-05T06:01:32.529Z,12.21
2022-10-05T06:02:20.181Z,12.2
2022-10-05T06:03:20.205Z,12.2
2022-10-05T06:04:20.136Z,12.19
2022-10-05T06:05:20.131Z,12.19
2022-10-05T06:06:20.135Z,12.18
2022-10-05T06:07:20.130Z,12.18
2022-10-05T06:08:20.110Z,12.2
2022-10-05T06:09:20.156Z,12.2
2022-10-05T06:10:20.126Z,12.21
2022-10-05T06:11:20.125Z,12.22
2022-10-05T06:12:20.128Z,12.26
2022-10-05T06:13:20.120Z,12.33
2022-10-05T06:14:20.133Z,12.42
2022-10-05T06:15:20.129Z,12.53
2022-10-05T06:16:20.134Z,12.66
2022-10-05T06:17:20.129Z,12.79
2022-10-05T06:18:20.135Z,12.93
2022-10-05T06:19:20.161Z,13.05
2022-10-05T06:20:20.242Z,13.19
2022-10-05T06:21:20.118Z,13.25
2022-10-05T06:22:20.124Z,13.28
2022-10-05T06:23:20.133Z,13.27
2022-10-05T06:24:20.129Z,13.23
2022-10-05T06:25:20.110Z,13.12
2022-10-05T06:26:20.110Z,13.02
2022-10-05T06:27:20.114Z,12.94
2022-10-05T06:28:20.187Z,12.88
2022-10-05T06:29:20.168Z,12.83
2022-10-05T06:30:20.146Z,12.8
2022-10-05T06:31:20.177Z,12.78
2022-10-05T06:32:20.119Z,12.75
2022-10-05T06:33:20.125Z,12.75
2022-10-05T06:34:20.125Z,12.79
2022-10-05T06:35:20.215Z,12.8
2022-10-05T06:36:20.124Z,12.85
2022-10-05T06:37:20.194Z,12.89
2022-10-05T06:38:20.088Z,12.93
2022-10-05T06:39:20.257Z,13
2022-10-05T06:40:20.221Z,13.09
2022-10-05T06:41:20.382Z,13.18
2022-10-05T06:42:20.209Z,13.28
2022-10-05T06:43:20.545Z,13.42
2022-10-05T06:44:20.203Z,13.56
2022-10-05T06:45:20.357Z,13.78
2022-10-05T06:46:20.452Z,14.01
2022-10-05T06:47:20.696Z,14.23
2022-10-05T06:48:20.999Z,14.4
2022-10-05T06:49:20.531Z,14.57
2022-10-05T06:50:20.834Z,14.6
2022-10-05T06:51:20.402Z,14.69
2022-10-05T06:52:20.907Z,14.75
2022-10-05T06:53:20.360Z,14.67
2022-10-05T06:54:20.578Z,14.75
2022-10-05T06:55:20.293Z,14.72
2022-10-05T06:56:20.537Z,14.74
2022-10-05T06:57:20.309Z,14.74
2022-10-05T06:58:20.581Z,14.7
2022-10-05T06:59:20.263Z,14.66
2022-10-05T07:00:20.225Z,14.57
2022-10-05T07:01:20.376Z,14.52
2022-10-05T07:02:20.800Z,14.45
2022-10-05T07:03:20.185Z,14.37
2022-10-05T07:04:20.410Z,14.24
2022-10-05T07:05:20.694Z,14.12
2022-10-05T07:06:20.110Z,14.05
2022-10-05T07:07:20.127Z,13.99
2022-10-05T07:08:20.117Z,13.99
2022-10-05T07:09:20.136Z,13.93
2022-10-05T07:10:20.159Z,13.9
2022-10-05T07:11:20.132Z,13.91
2022-10-05T07:12:20.206Z,13.86
2022-10-05T07:13:20.138Z,13.87
2022-10-05T07:14:20.119Z,13.86
2022-10-05T07:15:20.141Z,13.82
2022-10-05T07:16:20.145Z,13.79
2022-10-05T07:17:20.140Z,13.8
2022-10-05T07:18:20.133Z,13.81
2022-10-05T07:19:20.124Z,13.81
2022-10-05T07:20:20.181Z,13.84
2022-10-05T07:21:20.126Z,13.83
2022-10-05T07:22:20.138Z,13.86
2022-10-05T07:23:20.166Z,13.9
2022-10-05T07:24:20.121Z,13.94
2022-10-05T07:25:20.114Z,13.96
2022-10-05T07:26:20.114Z,13.99
2022-10-05T07:27:20.134Z,14.01
2022-10-05T07:28:20.175Z,14.03
2022-10-05T07:29:20.124Z,14.07
2022-10-05T07:30:20.121Z,14.06
2022-10-05T07:31:20.175Z,14.07
2022-10-05T07:32:20.133Z,14.09
2022-10-05T07:33:20.185Z,14.1
2022-10-05T07:34:20.220Z,14.11
2022-10-05T07:35:20.127Z,14.11
2022-10-05T07:36:20.132Z,14.14
2022-10-05T07:37:20.135Z,14.13
2022-10-05T07:38:20.117Z,14.17
2022-10-05T07:39:21.382Z,14.2
2022-10-05T07:40:20.124Z,14.22
2022-10-05T07:41:20.124Z,14.26
2022-10-05T07:42:20.131Z,14.25
2022-10-05T07:43:20.130Z,14.27
2022-10-05T07:44:20.128Z,14.25
2022-10-05T07:45:20.140Z,14.27
2022-10-05T07:46:20.174Z,14.27
2022-10-05T07:47:20.130Z,14.3
2022-10-05T07:48:20.112Z,14.32
2022-10-05T07:49:20.134Z,14.34
2022-10-05T07:50:20.113Z,14.36
2022-10-05T07:51:20.127Z,14.4
2022-10-05T07:52:20.133Z,14.41
2022-10-05T07:53:20.130Z,14.44
2022-10-05T07:54:20.139Z,14.45
2022-10-05T07:55:20.129Z,14.48
2022-10-05T07:56:20.145Z,14.49
2022-10-05T07:57:20.133Z,14.54
2022-10-05T07:58:20.173Z,14.54
2022-10-05T07:59:20.105Z,14.57
2022-10-05T08:00:20.203Z,14.61
2022-10-05T08:01:20.160Z,14.65
2022-10-05T08:02:20.472Z,14.66
2022-10-05T08:03:20.172Z,14.66
2022-10-05T08:04:20.197Z,14.67
2022-10-05T08:05:20.224Z,14.68
2022-10-05T08:06:20.540Z,14.69
2022-10-05T08:07:20.183Z,14.7
2022-10-05T08:08:21.259Z,14.72
2022-10-05T08:09:20.118Z,14.75
2022-10-05T08:10:20.118Z,14.79
2022-10-05T08:11:20.120Z,14.85
2022-10-05T08:12:20.125Z,14.86
2022-10-05T08:13:20.118Z,14.86
2022-10-05T08:14:20.121Z,14.9
2022-10-05T08:15:20.136Z,14.96
2022-10-05T08:16:20.202Z,14.99
2022-10-05T08:17:25.413Z,15
2022-10-05T08:18:20.396Z,14.98
2022-10-05T08:19:20.117Z,14.98
2022-10-05T08:20:20.208Z,14.98
2022-10-05T08:21:20.138Z,14.99
2022-10-05T08:22:20.093Z,14.96
2022-10-05T08:23:20.126Z,14.96
2022-10-05T08:24:20.131Z,14.94
2022-10-05T08:25:20.138Z,14.95
2022-10-05T08:26:20.134Z,14.94
2022-10-05T08:27:20.128Z,14.96
2022-10-05T08:28:20.191Z,14.96
2022-10-05T08:29:20.231Z,14.94
2022-10-05T08:30:20.213Z,14.96
2022-10-05T08:31:20.175Z,14.96
2022-10-05T08:32:20.123Z,14.96
2022-10-05T08:33:20.123Z,14.99
2022-10-05T08:34:20.136Z,15.02
2022-10-05T08:35:20.124Z,15.06
2022-10-05T08:36:20.183Z,15.06
2022-10-05T08:37:20.101Z,15.06
2022-10-05T08:38:20.393Z,15.05
2022-10-05T08:39:20.908Z,15.03
2022-10-05T08:40:20.676Z,15.03
2022-10-05T08:41:20.137Z,15.01
2022-10-05T08:42:20.448Z,15.03
2022-10-05T08:43:20.646Z,15.03
2022-10-05T08:44:21.046Z,15.03
2022-10-05T08:45:20.175Z,15.05
2022-10-05T08:46:20.209Z,15.05
2022-10-05T08:47:20.472Z,15.07
2022-10-05T08:48:20.126Z,15.06
2022-10-05T08:49:20.126Z,15.06
2022-10-05T08:50:20.314Z,15.08
2022-10-05T08:51:20.517Z,15.1
2022-10-05T08:52:20.131Z,15.13
2022-10-05T08:53:20.150Z,15.13
2022-10-05T08:54:20.124Z,15.12
2022-10-05T08:55:20.115Z,15.12
2022-10-05T08:56:27.879Z,15.14
2022-10-05T08:57:20.094Z,15.14
2022-10-05T08:58:20.170Z,15.15
2022-10-05T08:59:20.104Z,15.15
2022-10-05T09:00:20.284Z,15.16
2022-10-05T09:01:20.279Z,15.18
2022-10-05T09:02:20.152Z,15.21
2022-10-05T09:03:20.129Z,15.2
2022-10-05T09:04:20.114Z,15.21
2022-10-05T09:05:20.364Z,15.22
2022-10-05T09:06:20.117Z,15.23
2022-10-05T09:07:20.123Z,15.23
2022-10-05T09:08:20.181Z,15.27
2022-10-05T09:09:20.126Z,15.28
2022-10-05T09:10:20.121Z,15.26
2022-10-05T09:11:20.148Z,15.27
2022-10-05T09:12:20.348Z,15.27
2022-10-05T09:13:20.160Z,15.31
2022-10-05T09:14:20.120Z,15.3
2022-10-05T09:15:26.130Z,15.33
2022-10-05T09:16:20.132Z,15.32
2022-10-05T09:17:20.127Z,15.31
2022-10-05T09:18:20.148Z,15.32
2022-10-05T09:19:20.133Z,15.33
2022-10-05T09:20:20.141Z,15.34
2022-10-05T09:21:20.131Z,15.33
2022-10-05T09:22:20.135Z,15.35
2022-10-05T09:23:20.289Z,15.35
2022-10-05T09:24:20.125Z,15.36
2022-10-05T09:25:20.129Z,15.36
2022-10-05T09:26:20.131Z,15.35
2022-10-05T09:27:20.156Z,15.37
2022-10-05T09:28:20.142Z,15.37
2022-10-05T09:29:20.131Z,15.38
2022-10-05T09:30:20.125Z,15.4
2022-10-05T09:31:20.180Z,15.4
2022-10-05T09:32:20.125Z,15.42
2022-10-05T09:33:20.111Z,15.46
2022-10-05T09:34:20.276Z,15.51
2022-10-05T09:35:20.137Z,15.56
2022-10-05T09:36:20.129Z,15.61
2022-10-05T09:37:20.129Z,15.68
2022-10-05T09:38:20.125Z,15.75
2022-10-05T09:39:20.238Z,15.79
2022-10-05T09:41:20.156Z,15.84
2022-10-05T09:42:20.123Z,15.85
2022-10-05T09:43:20.167Z,15.88
2022-10-05T09:44:20.155Z,15.91
2022-10-05T09:45:23.139Z,15.95
2022-10-05T09:46:20.233Z,16
2022-10-05T09:47:20.132Z,16.04
2022-10-05T09:48:20.104Z,16.07
2022-10-05T09:49:20.112Z,16.04
2022-10-05T09:50:20.185Z,16.04
2022-10-05T09:51:20.102Z,16.08
2022-10-05T09:52:20.252Z,16.14
2022-10-05T09:53:20.534Z,16.2
2022-10-05T09:54:20.252Z,16.27
2022-10-05T09:55:20.598Z,16.33
2022-10-05T09:56:20.899Z,16.33
2022-10-05T09:57:20.853Z,16.39
2022-10-05T09:58:20.348Z,16.41
2022-10-05T09:59:20.622Z,16.45
2022-10-05T10:00:20.401Z,16.52
2022-10-05T10:01:32.976Z,16.58
2022-10-05T10:02:20.853Z,16.63
2022-10-05T10:03:20.255Z,16.6
2022-10-05T10:04:20.425Z,16.6
2022-10-05T10:05:20.210Z,16.62
2022-10-05T10:06:20.209Z,16.62
2022-10-05T10:07:20.129Z,16.61
2022-10-05T10:08:20.223Z,16.59
2022-10-05T10:09:20.103Z,16.64
2022-10-05T10:10:20.184Z,16.67
2022-10-05T10:11:20.152Z,16.66
2022-10-05T10:12:20.415Z,16.7
2022-10-05T10:13:20.088Z,16.65
2022-10-05T10:14:20.356Z,16.71
2022-10-05T10:15:20.236Z,16.74
2022-10-05T10:16:20.816Z,16.76
2022-10-05T10:17:21.210Z,16.76
2022-10-05T10:18:20.126Z,16.79
2022-10-05T10:19:20.166Z,16.85
2022-10-05T10:20:20.411Z,16.92
2022-10-05T10:21:20.121Z,16.97
2022-10-05T10:22:20.130Z,17.02
2022-10-05T10:23:20.139Z,17.03
2022-10-05T10:24:20.148Z,16.99
2022-10-05T10:25:20.121Z,17.01
2022-10-05T10:26:20.131Z,16.94
2022-10-05T10:27:20.143Z,16.91
2022-10-05T10:28:20.158Z,16.87
2022-10-05T10:29:20.183Z,16.92
2022-10-05T10:30:20.115Z,16.95
2022-10-05T10:31:20.207Z,16.92
2022-10-05T10:32:20.117Z,16.89
2022-10-05T10:33:20.125Z,16.89
2022-10-05T10:34:20.139Z,16.83
2022-10-05T10:35:20.231Z,16.78
2022-10-05T10:36:20.150Z,16.77
2022-10-05T10:37:20.130Z,16.74
2022-10-05T10:38:20.131Z,16.77
2022-10-05T10:39:20.128Z,16.81
2022-10-05T10:40:20.145Z,16.86
2022-10-05T10:41:20.127Z,16.88
2022-10-05T10:42:25.327Z,16.87
2022-10-05T10:43:20.134Z,16.9
2022-10-05T10:44:20.124Z,16.92
2022-10-05T10:45:20.170Z,16.96
2022-10-05T10:46:20.207Z,17
2022-10-05T10:47:20.116Z,17
2022-10-05T10:48:20.118Z,17.04
2022-10-05T10:49:20.125Z,17.08
2022-10-05T10:50:20.228Z,17.09
2022-10-05T10:51:20.128Z,17.03
2022-10-05T10:52:20.124Z,17.05
2022-10-05T10:53:20.121Z,17.05
2022-10-05T10:54:20.136Z,17.07
2022-10-05T10:55:20.132Z,17.05
2022-10-05T10:56:20.132Z,17.02
2022-10-05T10:57:20.149Z,17.02
2022-10-05T10:58:20.152Z,17.05
2022-10-05T10:59:20.129Z,17.11
2022-10-05T11:00:20.131Z,17.07
2022-10-05T11:01:20.171Z,17.01
2022-10-05T11:02:20.143Z,16.98
2022-10-05T11:03:20.132Z,17.02
2022-10-05T11:04:20.131Z,16.99
2022-10-05T11:05:20.122Z,17.02
2022-10-05T11:06:20.121Z,17.03
2022-10-05T11:07:20.124Z,17.1
2022-10-05T11:08:20.122Z,17.1
2022-10-05T11:09:20.125Z,17.11
2022-10-05T11:10:20.116Z,17.18
2022-10-05T11:11:20.134Z,17.19
2022-10-05T11:12:20.129Z,17.19
2022-10-05T11:13:20.108Z,17.24
2022-10-05T11:14:20.135Z,17.31
2022-10-05T11:15:20.145Z,17.38
2022-10-05T11:16:21.124Z,17.38
2022-10-05T11:17:20.118Z,17.43
2022-10-05T11:18:20.124Z,17.48
2022-10-05T11:19:20.127Z,17.48
2022-10-05T11:20:20.135Z,17.49
2022-10-05T11:21:20.134Z,17.49
2022-10-05T11:22:20.184Z,17.46
2022-10-05T11:23:20.135Z,17.44
2022-10-05T11:24:20.112Z,17.45
2022-10-05T11:25:20.121Z,17.58
2022-10-05T11:26:20.125Z,17.59
2022-10-05T11:27:20.167Z,17.65
2022-10-05T11:28:20.248Z,17.76
2022-10-05T11:29:20.123Z,17.79
2022-10-05T11:30:20.131Z,17.76
2022-10-05T11:31:20.142Z,17.67
2022-10-05T11:32:20.134Z,17.8
2022-10-05T11:34:20.123Z,17.9
2022-10-05T11:35:20.146Z,18.25
2022-10-05T11:36:20.123Z,18.46
2022-10-05T11:37:20.122Z,18.53
2022-10-05T11:38:20.122Z,18.73
2022-10-05T11:39:20.111Z,18.78
2022-10-05T11:40:20.119Z,18.59
2022-10-05T11:41:20.113Z,18.32
2022-10-05T11:42:20.118Z,18.15
2022-10-05T11:43:20.126Z,17.97
2022-10-05T11:44:20.198Z,17.8
2022-10-05T11:45:20.352Z,17.85
2022-10-05T11:46:20.185Z,17.99
2022-10-05T11:47:20.086Z,18.37
2022-10-05T11:48:20.094Z,18.69
2022-10-05T11:49:20.099Z,19.04
2022-10-05T11:50:20.110Z,19.36
2022-10-05T11:51:22.924Z,19.54
2022-10-05T11:52:20.918Z,19.7
2022-10-05T11:53:20.738Z,19.93
2022-10-05T11:54:20.169Z,19.91
2022-10-05T11:55:20.542Z,20.02
2022-10-05T11:56:21.153Z,19.64
2022-10-05T11:57:20.292Z,19.67
2022-10-05T11:58:20.357Z,19.73
2022-10-05T11:59:20.334Z,19.8
2022-10-05T12:00:20.642Z,20.09
2022-10-05T12:01:20.408Z,20.12
2022-10-05T12:02:20.681Z,20.2
2022-10-05T12:03:20.343Z,20.18
2022-10-05T12:04:20.440Z,20.24
2022-10-05T12:05:20.329Z,20.08
2022-10-05T12:06:20.115Z,19.99
2022-10-05T12:07:20.138Z,20.03
2022-10-05T12:08:20.121Z,20.02
2022-10-05T12:09:20.166Z,20.1
2022-10-05T12:10:20.127Z,20.27
2022-10-05T12:11:20.141Z,20.19
2022-10-05T12:12:20.153Z,20.24
2022-10-05T12:13:20.128Z,20.25
2022-10-05T12:14:20.146Z,20.2
2022-10-05T12:15:20.138Z,20.16
2022-10-05T12:16:20.183Z,19.86
2022-10-05T12:17:20.129Z,19.8
2022-10-05T12:18:20.145Z,19.75
2022-10-05T12:19:20.138Z,19.66
2022-10-05T12:20:20.121Z,19.68
2022-10-05T12:21:20.129Z,19.78
2022-10-05T12:22:20.120Z,20.01
2022-10-05T12:23:20.122Z,20.15
2022-10-05T12:24:26.626Z,20.26
2022-10-05T12:25:20.116Z,20.12
2022-10-05T12:26:20.129Z,20.15
2022-10-05T12:27:20.128Z,20.02
2022-10-05T12:28:20.158Z,20.01
2022-10-05T12:29:20.136Z,20.1
2022-10-05T12:30:20.124Z,20.25
2022-10-05T12:31:20.136Z,20.37
2022-10-05T12:32:20.115Z,20.32
2022-10-05T12:33:20.138Z,20.28
2022-10-05T12:34:20.124Z,20.18
2022-10-05T12:35:36.466Z,20.28
2022-10-05T12:36:20.124Z,20.28
2022-10-05T12:37:20.136Z,20.24
2022-10-05T12:38:20.142Z,20.07
2022-10-05T12:39:20.120Z,20.15
2022-10-05T12:40:20.134Z,20.24
2022-10-05T12:41:20.352Z,20.35
2022-10-05T12:42:20.126Z,20.49
2022-10-05T12:43:20.149Z,20.49
2022-10-05T12:44:20.126Z,20.61
2022-10-05T12:45:20.120Z,20.61
2022-10-05T12:46:20.126Z,20.76
2022-10-05T12:47:20.127Z,20.98
2022-10-05T12:48:20.142Z,21.13
2022-10-05T12:49:20.143Z,21.42
2022-10-05T12:50:20.137Z,21.57
2022-10-05T12:51:20.193Z,21.68
2022-10-05T12:52:20.119Z,21.54
2022-10-05T12:53:20.119Z,21.25
2022-10-05T12:54:20.109Z,21.25
2022-10-05T12:55:20.105Z,21.11
2022-10-05T12:56:20.204Z,20.89
2022-10-05T12:57:20.123Z,20.83